createdAt,value
2018-11-11T00:00:28.629Z,0
2018-11-11T00:01:28.606Z,0
2018-11-11T00:02:28.886Z,0
2018-11-11T00:03:28.874Z,0
2018-11-11T00:04:28.837Z,0
2018-11-11T00:05:28.822Z,0
2018-11-11T00:06:28.791Z,0
2018-11-11T00:07:28.820Z,0
2018-11-11T00:08:28.531Z,0
2018-11-11T00:09:28.807Z,0
2018-11-11T00:10:28.743Z,0
2018-11-11T00:11:28.773Z,0
2018-11-11T00:12:28.719Z,0
2018-11-11T00:13:28.484Z,0
2018-11-11T00:14:28.713Z,0
2018-11-11T00:15:28.479Z,0
2018-11-11T00:16:28.706Z,0
2018-11-11T00:17:28.696Z,0
2018-11-11T00:18:28.651Z,0
2018-11-11T00:19:28.648Z,0
2018-11-11T00:20:28.406Z,0
2018-11-11T00:21:28.701Z,0
2018-11-11T00:22:28.611Z,0
2018-11-11T00:23:28.891Z,0
2018-11-11T00:24:28.603Z,0
2018-11-11T00:25:28.361Z,0
2018-11-11T00:26:28.562Z,0
2018-11-11T00:27:28.594Z,0
2018-11-11T00:28:28.723Z,0
2018-11-11T00:29:28.557Z,0
2018-11-11T00:30:28.515Z,0
2018-11-11T00:31:28.290Z,0
2018-11-11T00:32:28.522Z,0
2018-11-11T00:33:28.515Z,0
2018-11-11T00:34:28.474Z,0
2018-11-11T00:35:28.507Z,0
2018-11-11T00:36:28.461Z,0
2018-11-11T00:37:28.444Z,0
2018-11-11T00:38:28.427Z,0
2018-11-11T00:39:28.260Z,0
2018-11-11T00:40:28.424Z,0
2018-11-11T00:41:28.180Z,0
2018-11-11T00:42:28.380Z,0
2018-11-11T00:43:28.404Z,0
2018-11-11T00:44:28.353Z,0
2018-11-11T00:45:28.116Z,0
2018-11-11T00:46:27.827Z,0
2018-11-11T00:47:28.366Z,0
2018-11-11T00:48:28.078Z,0
2018-11-11T00:49:28.059Z,0
2018-11-11T00:50:28.333Z,0
2018-11-11T00:51:28.065Z,0
2018-11-11T00:52:28.275Z,0
2018-11-11T00:53:28.012Z,0
2018-11-11T00:54:28.499Z,0
2018-11-11T00:55:28.269Z,0
2018-11-11T00:56:28.230Z,0
2018-11-11T00:57:28.243Z,0
2018-11-11T00:58:28.195Z,0
2018-11-11T00:59:28.219Z,0
2018-11-11T01:00:27.916Z,0
2018-11-11T01:01:28.185Z,0
2018-11-11T01:02:27.899Z,0
2018-11-11T01:03:28.177Z,0
2018-11-11T01:04:28.153Z,0
2018-11-11T01:05:27.882Z,0
2018-11-11T01:06:27.849Z,0
2018-11-11T01:07:28.087Z,0
2018-11-11T01:08:27.847Z,0
2018-11-11T01:09:27.584Z,0
2018-11-11T01:10:27.835Z,0
2018-11-11T01:11:28.041Z,0
2018-11-11T01:12:28.037Z,0
2018-11-11T01:13:28.047Z,0
2018-11-11T01:14:27.763Z,0
2018-11-11T01:15:27.773Z,0
2018-11-11T01:16:27.982Z,0
2018-11-11T01:17:27.999Z,0
2018-11-11T01:18:27.705Z,0
2018-11-11T01:19:27.474Z,0
2018-11-11T01:20:27.752Z,0
2018-11-11T01:21:27.953Z,0
2018-11-11T01:22:27.913Z,0
2018-11-11T01:23:27.899Z,0
2018-11-11T01:24:27.913Z,0
2018-11-11T01:25:28.159Z,0
2018-11-11T01:26:27.901Z,0
2018-11-11T01:27:27.848Z,0
2018-11-11T01:28:27.856Z,0
2018-11-11T01:29:27.819Z,0
2018-11-11T01:30:27.906Z,0
2018-11-11T01:31:27.803Z,0
2018-11-11T01:32:27.829Z,0
2018-11-11T01:33:27.803Z,0
2018-11-11T01:34:27.812Z,0
2018-11-11T01:35:27.752Z,0
2018-11-11T01:36:27.755Z,0
2018-11-11T01:37:27.238Z,0
2018-11-11T01:38:27.513Z,0
2018-11-11T01:39:27.715Z,0
2018-11-11T01:40:27.716Z,0
2018-11-11T01:41:27.711Z,0
2018-11-11T01:42:27.454Z,0
2018-11-11T01:43:27.412Z,0
2018-11-11T01:44:27.161Z,0
2018-11-11T01:45:27.632Z,0
2018-11-11T01:46:27.405Z,0
2018-11-11T01:47:27.616Z,0
2018-11-11T01:48:27.636Z,0
2018-11-11T01:49:27.345Z,0
2018-11-11T01:50:27.358Z,0
2018-11-11T01:51:27.307Z,0
2018-11-11T01:52:27.314Z,0
2018-11-11T01:53:27.564Z,0
2018-11-11T01:54:27.312Z,0
2018-11-11T01:55:27.298Z,0
2018-11-11T01:56:27.518Z,0
2018-11-11T01:57:27.501Z,0
2018-11-11T01:58:27.472Z,0
2018-11-11T01:59:27.252Z,0
2018-11-11T02:00:27.219Z,0
2018-11-11T02:01:27.482Z,0
2018-11-11T02:02:27.175Z,0
2018-11-11T02:03:27.222Z,0
2018-11-11T02:04:27.169Z,0
2018-11-11T02:05:26.898Z,0
2018-11-11T02:06:27.422Z,0
2018-11-11T02:07:27.113Z,0
2018-11-11T02:08:27.373Z,0
2018-11-11T02:09:27.366Z,0
2018-11-11T02:10:27.377Z,0
2018-11-11T02:11:27.362Z,0
2018-11-11T02:12:27.082Z,0
2018-11-11T02:13:27.308Z,0
2018-11-11T02:14:27.285Z,0
2018-11-11T02:15:27.314Z,0
2018-11-11T02:16:27.272Z,0
2018-11-11T02:17:27.007Z,0
2018-11-11T02:18:27.285Z,0
2018-11-11T02:19:26.976Z,0
2018-11-11T02:20:26.999Z,0
2018-11-11T02:21:27.356Z,0
2018-11-11T02:22:27.242Z,0
2018-11-11T02:23:27.173Z,0
2018-11-11T02:24:26.929Z,0
2018-11-11T02:25:27.174Z,0
2018-11-11T02:26:26.927Z,0
2018-11-11T02:27:27.175Z,0
2018-11-11T02:28:27.134Z,0
2018-11-11T02:29:26.867Z,0
2018-11-11T02:30:26.955Z,0
2018-11-11T02:31:26.581Z,0
2018-11-11T02:32:27.100Z,0
2018-11-11T02:33:27.087Z,0
2018-11-11T02:34:26.343Z,0
2018-11-11T02:35:27.048Z,0
2018-11-11T02:36:26.557Z,0
2018-11-11T02:37:27.337Z,0
2018-11-11T02:38:27.040Z,0
2018-11-11T02:39:26.730Z,0
2018-11-11T02:40:26.743Z,0
2018-11-11T02:41:26.977Z,0
2018-11-11T02:42:27.000Z,0
2018-11-11T02:43:26.466Z,0
2018-11-11T02:44:26.702Z,0
2018-11-11T02:45:26.936Z,0
2018-11-11T02:46:26.907Z,0
2018-11-11T02:47:26.929Z,0
2018-11-11T02:48:26.946Z,0
2018-11-11T02:49:26.654Z,0
2018-11-11T02:50:26.854Z,0
2018-11-11T02:51:26.881Z,0
2018-11-11T02:52:26.580Z,0
2018-11-11T02:53:26.860Z,0
2018-11-11T02:54:26.819Z,0
2018-11-11T02:55:26.840Z,0
2018-11-11T02:56:26.553Z,0
2018-11-11T02:57:26.781Z,0
2018-11-11T02:58:26.829Z,0
2018-11-11T02:59:26.779Z,0
2018-11-11T03:00:26.760Z,0
2018-11-11T03:01:26.734Z,0
2018-11-11T03:02:26.707Z,0
2018-11-11T03:03:26.755Z,0
2018-11-11T03:04:27.110Z,0
2018-11-11T03:05:26.466Z,0
2018-11-11T03:06:26.662Z,0
2018-11-11T03:07:26.693Z,0
2018-11-11T03:08:26.649Z,0
2018-11-11T03:09:26.401Z,0
2018-11-11T03:10:26.618Z,0
2018-11-11T03:11:26.387Z,0
2018-11-11T03:12:26.631Z,0
2018-11-11T03:13:26.609Z,0
2018-11-11T03:14:26.577Z,0
2018-11-11T03:15:26.575Z,0
2018-11-11T03:16:26.586Z,0
2018-11-11T03:17:26.565Z,0
2018-11-11T03:18:26.582Z,0
2018-11-11T03:19:26.270Z,0
2018-11-11T03:20:26.521Z,0
2018-11-11T03:21:26.525Z,0
2018-11-11T03:22:26.221Z,0
2018-11-11T03:23:26.245Z,0
2018-11-11T03:24:26.445Z,0
2018-11-11T03:25:26.479Z,0
2018-11-11T03:26:26.200Z,0
2018-11-11T03:27:26.202Z,0
2018-11-11T03:28:26.169Z,0
2018-11-11T03:29:25.911Z,0
2018-11-11T03:30:26.635Z,0
2018-11-11T03:31:26.382Z,0
2018-11-11T03:32:26.145Z,0
2018-11-11T03:33:26.378Z,0
2018-11-11T03:34:26.371Z,0
2018-11-11T03:35:26.319Z,0
2018-11-11T03:36:26.074Z,0
2018-11-11T03:37:26.355Z,0
2018-11-11T03:38:26.327Z,0
2018-11-11T03:39:26.274Z,0
2018-11-11T03:40:26.322Z,0
2018-11-11T03:41:26.256Z,0
2018-11-11T03:42:26.276Z,0
2018-11-11T03:43:26.219Z,0
2018-11-11T03:44:26.226Z,0
2018-11-11T03:45:26.016Z,0
2018-11-11T03:46:25.717Z,0
2018-11-11T03:47:26.179Z,0
2018-11-11T03:48:25.931Z,0
2018-11-11T03:49:26.173Z,0
2018-11-11T03:50:26.180Z,0
2018-11-11T03:51:25.879Z,0
2018-11-11T03:52:26.139Z,0
2018-11-11T03:53:26.118Z,0
2018-11-11T03:54:26.133Z,0
2018-11-11T03:55:26.088Z,0
2018-11-11T03:56:26.107Z,0
2018-11-11T03:57:26.065Z,0
2018-11-11T03:58:26.083Z,0
2018-11-11T03:59:26.032Z,0
2018-11-11T04:00:26.049Z,0
2018-11-11T04:01:26.013Z,0
2018-11-11T04:02:25.772Z,0
2018-11-11T04:03:26.021Z,0
2018-11-11T04:04:25.986Z,0
2018-11-11T04:05:25.968Z,0
2018-11-11T04:06:25.949Z,0
2018-11-11T04:07:25.963Z,0
2018-11-11T04:08:25.932Z,0
2018-11-11T04:09:25.946Z,0
2018-11-11T04:10:26.421Z,0
2018-11-11T04:11:25.666Z,0
2018-11-11T04:12:25.885Z,0
2018-11-11T04:13:25.876Z,0
2018-11-11T04:14:25.646Z,0
2018-11-11T04:15:25.324Z,0
2018-11-11T04:16:25.592Z,0
2018-11-11T04:17:25.816Z,0
2018-11-11T04:18:25.577Z,0
2018-11-11T04:19:25.818Z,0
2018-11-11T04:20:25.783Z,0
2018-11-11T04:21:25.769Z,0
2018-11-11T04:22:25.743Z,0
2018-11-11T04:23:25.779Z,0
2018-11-11T04:24:25.740Z,0
2018-11-11T04:25:25.754Z,0
2018-11-11T04:26:25.441Z,0
2018-11-11T04:27:25.722Z,0
2018-11-11T04:28:25.420Z,0
2018-11-11T04:29:25.184Z,0
2018-11-11T04:30:25.659Z,0
2018-11-11T04:31:25.686Z,0
2018-11-11T04:32:25.905Z,0
2018-11-11T04:33:25.700Z,0
2018-11-11T04:34:25.350Z,0
2018-11-11T04:35:25.599Z,0
2018-11-11T04:36:25.600Z,0
2018-11-11T04:37:25.590Z,0
2018-11-11T04:38:25.550Z,0
2018-11-11T04:39:25.994Z,0
2018-11-11T04:40:25.561Z,0
2018-11-11T04:41:25.556Z,0
2018-11-11T04:42:25.507Z,0
2018-11-11T04:43:25.529Z,0
2018-11-11T04:44:25.484Z,0
2018-11-11T04:45:25.497Z,0
2018-11-11T04:46:26.088Z,0
2018-11-11T04:47:25.226Z,0
2018-11-11T04:48:25.213Z,0
2018-11-11T04:49:25.462Z,0
2018-11-11T04:50:25.462Z,0
2018-11-11T04:51:25.420Z,0
2018-11-11T04:52:25.153Z,0
2018-11-11T04:53:25.403Z,0
2018-11-11T04:54:25.408Z,0
2018-11-11T04:55:25.153Z,0
2018-11-11T04:56:25.110Z,0
2018-11-11T04:57:25.323Z,0
2018-11-11T04:58:25.112Z,0
2018-11-11T04:59:25.054Z,0
2018-11-11T05:00:24.817Z,0
2018-11-11T05:01:25.623Z,0
2018-11-11T05:02:25.305Z,0
2018-11-11T05:03:25.249Z,0
2018-11-11T05:04:25.391Z,0
2018-11-11T05:05:25.261Z,0
2018-11-11T05:06:25.212Z,0
2018-11-11T05:07:25.211Z,0
2018-11-11T05:08:25.213Z,0
2018-11-11T05:09:25.214Z,0
2018-11-11T05:10:24.953Z,0
2018-11-11T05:11:25.154Z,0
2018-11-11T05:12:24.915Z,0
2018-11-11T05:13:25.128Z,0
2018-11-11T05:14:25.162Z,0
2018-11-11T05:15:25.123Z,0
2018-11-11T05:16:24.882Z,0
2018-11-11T05:17:25.093Z,0
2018-11-11T05:18:24.858Z,0
2018-11-11T05:19:25.056Z,0
2018-11-11T05:20:24.804Z,0
2018-11-11T05:21:24.796Z,0
2018-11-11T05:22:25.073Z,0
2018-11-11T05:23:25.049Z,0
2018-11-11T05:24:25.040Z,0
2018-11-11T05:25:25.005Z,0
2018-11-11T05:26:24.721Z,0
2018-11-11T05:27:25.012Z,0
2018-11-11T05:28:24.720Z,0
2018-11-11T05:29:24.961Z,0
2018-11-11T05:30:24.714Z,0
2018-11-11T05:31:24.702Z,0
2018-11-11T05:32:24.434Z,0
2018-11-11T05:33:24.904Z,0
2018-11-11T05:34:25.175Z,0
2018-11-11T05:35:24.615Z,0
2018-11-11T05:36:24.619Z,0
2018-11-11T05:37:24.616Z,0
2018-11-11T05:38:24.622Z,0
2018-11-11T05:39:24.858Z,4
2018-11-11T05:40:24.827Z,0
2018-11-11T05:41:24.557Z,0
2018-11-11T05:42:24.327Z,4
2018-11-11T05:43:24.782Z,4
2018-11-11T05:44:24.799Z,0
2018-11-11T05:45:24.751Z,4
2018-11-11T05:46:24.789Z,4
2018-11-11T05:47:24.476Z,4
2018-11-11T05:48:24.755Z,4
2018-11-11T05:49:24.717Z,4
2018-11-11T05:50:24.747Z,8
2018-11-11T05:51:24.682Z,8
2018-11-11T05:52:24.679Z,12
2018-11-11T05:53:24.671Z,8
2018-11-11T05:54:24.428Z,12
2018-11-11T05:55:24.130Z,12
2018-11-11T05:56:24.652Z,16
2018-11-11T05:57:24.643Z,16
2018-11-11T05:58:24.383Z,16
2018-11-11T05:59:24.583Z,24
2018-11-11T06:00:24.602Z,24
2018-11-11T06:01:24.564Z,28
2018-11-11T06:02:24.597Z,32
2018-11-11T06:03:24.295Z,36
2018-11-11T06:04:24.570Z,40
2018-11-11T06:05:24.525Z,44
2018-11-11T06:06:24.549Z,48
2018-11-11T06:07:24.496Z,60
2018-11-11T06:08:24.500Z,68
2018-11-11T06:09:24.482Z,76
2018-11-11T06:10:24.498Z,84
2018-11-11T06:11:24.226Z,96
2018-11-11T06:12:24.198Z,104
2018-11-11T06:13:24.178Z,108
2018-11-11T06:14:24.410Z,112
2018-11-11T06:15:24.182Z,124
2018-11-11T06:16:24.403Z,140
2018-11-11T06:17:24.163Z,160
2018-11-11T06:18:23.858Z,184
2018-11-11T06:19:24.395Z,204
2018-11-11T06:20:24.358Z,228
2018-11-11T06:21:24.343Z,256
2018-11-11T06:22:24.363Z,280
2018-11-11T06:23:24.310Z,296
2018-11-11T06:24:24.311Z,320
2018-11-11T06:25:24.305Z,344
2018-11-11T06:26:24.058Z,372
2018-11-11T06:27:24.494Z,396
2018-11-11T06:28:24.015Z,428
2018-11-11T06:29:24.275Z,456
2018-11-11T06:30:23.976Z,488
2018-11-11T06:31:24.277Z,520
2018-11-11T06:32:24.233Z,556
2018-11-11T06:33:24.244Z,588
2018-11-11T06:34:24.399Z,620
2018-11-11T06:35:24.221Z,652
2018-11-11T06:36:23.907Z,684
2018-11-11T06:37:23.925Z,716
2018-11-11T06:38:24.140Z,748
2018-11-11T06:39:24.170Z,772
2018-11-11T06:40:23.888Z,788
2018-11-11T06:41:23.881Z,812
2018-11-11T06:42:24.091Z,844
2018-11-11T06:43:24.081Z,888
2018-11-11T06:44:23.881Z,928
2018-11-11T06:45:23.831Z,964
2018-11-11T06:46:23.793Z,1008
2018-11-11T06:47:23.824Z,1016
2018-11-11T06:48:24.042Z,1004
2018-11-11T06:49:24.061Z,1000
2018-11-11T06:50:24.001Z,1012
2018-11-11T06:51:24.029Z,1036
2018-11-11T06:52:23.983Z,1068
2018-11-11T06:53:24.002Z,1060
2018-11-11T06:54:23.959Z,1084
2018-11-11T06:55:23.737Z,1124
2018-11-11T06:56:23.711Z,1176
2018-11-11T06:57:23.954Z,1236
2018-11-11T06:58:23.921Z,1304
2018-11-11T06:59:23.911Z,1372
2018-11-11T07:00:23.945Z,1456
2018-11-11T07:01:23.913Z,1548
2018-11-11T07:02:23.911Z,1644
2018-11-11T07:03:23.859Z,1764
2018-11-11T07:04:23.626Z,1896
2018-11-11T07:05:23.831Z,2032
2018-11-11T07:06:23.870Z,2152
2018-11-11T07:07:23.960Z,2244
2018-11-11T07:08:23.593Z,2328
2018-11-11T07:09:23.568Z,2408
2018-11-11T07:10:23.827Z,2476
2018-11-11T07:11:23.774Z,2528
2018-11-11T07:12:23.783Z,2576
2018-11-11T07:13:23.525Z,2624
2018-11-11T07:14:23.735Z,2676
2018-11-11T07:15:23.731Z,2732
2018-11-11T07:16:23.754Z,2812
2018-11-11T07:17:23.741Z,2920
2018-11-11T07:18:23.739Z,3052
2018-11-11T07:19:23.688Z,3220
2018-11-11T07:20:23.186Z,3376
2018-11-11T07:21:23.657Z,3464
2018-11-11T07:22:23.691Z,3424
2018-11-11T07:23:23.467Z,3320
2018-11-11T07:24:23.555Z,3256
2018-11-11T07:25:23.663Z,3288
2018-11-11T07:26:23.609Z,3444
2018-11-11T07:27:23.638Z,3488
2018-11-11T07:28:23.609Z,3444
2018-11-11T07:29:23.603Z,3352
2018-11-11T07:30:23.567Z,3232
2018-11-11T07:31:23.355Z,3108
2018-11-11T07:32:23.315Z,2976
2018-11-11T07:33:23.566Z,2848
2018-11-11T07:34:23.577Z,2724
2018-11-11T07:35:23.522Z,2628
2018-11-11T07:36:23.525Z,2560
2018-11-11T07:37:23.267Z,2492
2018-11-11T07:38:23.477Z,2428
2018-11-11T07:39:23.761Z,2344
2018-11-11T07:40:23.470Z,2244
2018-11-11T07:41:23.482Z,2180
2018-11-11T07:42:23.304Z,2148
2018-11-11T07:43:23.478Z,2128
2018-11-11T07:44:23.456Z,2132
2018-11-11T07:45:23.436Z,2188
2018-11-11T07:46:23.399Z,2268
2018-11-11T07:47:23.139Z,2344
2018-11-11T07:48:23.400Z,2416
2018-11-11T07:49:23.137Z,2472
2018-11-11T07:50:23.405Z,2552
2018-11-11T07:51:23.097Z,2664
2018-11-11T07:52:23.362Z,2792
2018-11-11T07:53:23.327Z,2936
2018-11-11T07:54:23.394Z,3084
2018-11-11T07:55:23.503Z,3256
2018-11-11T07:56:23.343Z,3468
2018-11-11T07:57:23.296Z,3692
2018-11-11T07:58:23.622Z,3952
2018-11-11T07:59:23.276Z,4232
2018-11-11T08:00:23.013Z,4476
2018-11-11T08:01:23.005Z,4596
2018-11-11T08:02:23.742Z,4608
2018-11-11T08:03:23.223Z,4632
2018-11-11T08:04:23.234Z,4712
2018-11-11T08:05:23.240Z,4876
2018-11-11T08:06:22.974Z,5044
2018-11-11T08:07:22.930Z,5160
2018-11-11T08:08:23.191Z,5224
2018-11-11T08:09:22.910Z,5272
2018-11-11T08:10:23.452Z,5308
2018-11-11T08:11:23.673Z,5320
2018-11-11T08:12:22.657Z,5288
2018-11-11T08:13:22.926Z,5156
2018-11-11T08:14:22.647Z,4948
2018-11-11T08:15:22.845Z,4700
2018-11-11T08:16:22.853Z,4420
2018-11-11T08:17:23.117Z,4096
2018-11-11T08:18:22.854Z,3812
2018-11-11T08:19:22.845Z,3588
2018-11-11T08:20:23.089Z,3416
2018-11-11T08:21:23.049Z,3260
2018-11-11T08:22:23.029Z,3136
2018-11-11T08:23:22.544Z,3052
2018-11-11T08:24:22.776Z,3024
2018-11-11T08:25:23.399Z,2960
2018-11-11T08:26:22.743Z,2960
2018-11-11T08:27:23.014Z,3128
2018-11-11T08:28:22.984Z,3428
2018-11-11T08:29:22.209Z,3784
2018-11-11T08:30:22.733Z,4112
2018-11-11T08:31:22.938Z,4324
2018-11-11T08:32:22.984Z,4408
2018-11-11T08:33:22.931Z,4328
2018-11-11T08:34:22.707Z,4092
2018-11-11T08:35:22.945Z,3812
2018-11-11T08:36:22.910Z,3544
2018-11-11T08:37:22.890Z,3408
2018-11-11T08:38:22.621Z,3368
2018-11-11T08:39:22.895Z,3420
2018-11-11T08:40:23.059Z,3572
2018-11-11T08:41:23.134Z,3856
2018-11-11T08:42:22.598Z,4124
2018-11-11T08:43:22.343Z,4216
2018-11-11T08:44:22.808Z,4204
2018-11-11T08:45:22.827Z,4220
2018-11-11T08:46:22.545Z,4292
2018-11-11T08:47:22.829Z,4352
2018-11-11T08:48:23.456Z,4284
2018-11-11T08:49:22.788Z,4060
2018-11-11T08:50:22.764Z,3804
2018-11-11T08:51:22.493Z,3668
2018-11-11T08:52:22.500Z,3596
2018-11-11T08:53:22.757Z,3584
2018-11-11T08:54:22.711Z,3700
2018-11-11T08:55:22.741Z,4008
2018-11-11T08:56:22.712Z,4332
2018-11-11T08:57:22.216Z,4392
2018-11-11T08:58:22.675Z,4144
2018-11-11T08:59:22.449Z,3892
2018-11-11T09:00:22.413Z,3980
2018-11-11T09:01:22.422Z,4516
2018-11-11T09:02:22.131Z,5176
2018-11-11T09:03:22.161Z,5548
2018-11-11T09:04:22.645Z,5480
2018-11-11T09:05:22.633Z,5256
2018-11-11T09:06:22.596Z,5144
2018-11-11T09:07:22.632Z,4996
2018-11-11T09:08:22.595Z,4784
2018-11-11T09:09:22.581Z,4492
2018-11-11T09:10:22.557Z,4292
2018-11-11T09:11:22.484Z,4196
2018-11-11T09:12:22.817Z,3972
2018-11-11T09:13:22.590Z,3620
2018-11-11T09:14:22.272Z,3312
2018-11-11T09:15:22.295Z,3136
2018-11-11T09:16:22.500Z,3100
2018-11-11T09:17:22.056Z,3196
2018-11-11T09:18:22.486Z,3308
2018-11-11T09:19:22.518Z,3524
2018-11-11T09:20:22.237Z,3928
2018-11-11T09:21:22.341Z,4252
2018-11-11T09:22:22.490Z,4344
2018-11-11T09:23:22.475Z,4228
2018-11-11T09:24:22.458Z,3964
2018-11-11T09:25:22.302Z,3692
2018-11-11T09:26:22.412Z,3532
2018-11-11T09:27:22.439Z,3436
2018-11-11T09:28:21.902Z,3288
2018-11-11T09:29:22.590Z,3064
2018-11-11T09:30:22.882Z,2916
2018-11-11T09:31:22.412Z,2908
2018-11-11T09:32:21.852Z,3124
2018-11-11T09:33:22.163Z,3380
2018-11-11T09:34:22.335Z,3584
2018-11-11T09:35:22.829Z,3784
2018-11-11T09:36:22.093Z,4060
2018-11-11T09:37:22.339Z,4596
2018-11-11T09:38:22.298Z,5332
2018-11-11T09:39:22.496Z,5936
2018-11-11T09:40:21.798Z,6448
2018-11-11T09:41:22.304Z,6684
2018-11-11T09:42:22.491Z,6620
2018-11-11T09:43:22.009Z,6356
2018-11-11T09:44:22.071Z,5932
2018-11-11T09:45:22.268Z,5664
2018-11-11T09:46:22.230Z,5644
2018-11-11T09:47:22.263Z,5672
2018-11-11T09:48:22.217Z,5696
2018-11-11T09:49:22.228Z,5472
2018-11-11T09:50:22.189Z,5160
2018-11-11T09:51:22.234Z,5220
2018-11-11T09:52:22.199Z,5852
2018-11-11T09:53:22.210Z,6936
2018-11-11T09:54:22.621Z,7940
2018-11-11T09:55:21.897Z,7676
2018-11-11T09:56:21.908Z,6956
2018-11-11T09:57:21.901Z,6604
2018-11-11T09:58:21.909Z,6232
2018-11-11T09:59:21.615Z,5732
2018-11-11T10:00:21.883Z,5452
2018-11-11T10:01:22.097Z,5312
2018-11-11T10:02:21.876Z,5052
2018-11-11T10:03:21.836Z,4728
2018-11-11T10:04:22.119Z,4540
2018-11-11T10:05:22.076Z,4748
2018-11-11T10:06:22.357Z,4844
2018-11-11T10:07:22.246Z,4680
2018-11-11T10:08:22.051Z,4492
2018-11-11T10:09:22.044Z,4408
2018-11-11T10:10:22.066Z,4584
2018-11-11T10:11:22.015Z,4944
2018-11-11T10:12:22.288Z,5004
2018-11-11T10:13:22.026Z,4792
2018-11-11T10:14:22.036Z,4616
2018-11-11T10:15:22.230Z,4756
2018-11-11T10:16:21.990Z,5300
2018-11-11T10:17:21.958Z,5688
2018-11-11T10:18:21.740Z,5888
2018-11-11T10:19:21.943Z,6052
2018-11-11T10:20:22.416Z,6080
2018-11-11T10:21:21.945Z,6168
2018-11-11T10:22:21.967Z,6480
2018-11-11T10:23:21.921Z,6776
2018-11-11T10:24:21.665Z,6840
2018-11-11T10:25:21.654Z,6892
2018-11-11T10:26:21.928Z,6884
2018-11-11T10:27:21.929Z,7280
2018-11-11T10:28:21.645Z,7888
2018-11-11T10:29:22.350Z,8100
2018-11-11T10:30:21.849Z,7896
2018-11-11T10:31:21.623Z,7520
2018-11-11T10:32:21.592Z,7092
2018-11-11T10:33:22.107Z,6800
2018-11-11T10:34:21.828Z,6580
2018-11-11T10:35:21.849Z,6272
2018-11-11T10:36:21.562Z,6216
2018-11-11T10:37:21.363Z,6212
2018-11-11T10:38:21.827Z,6116
2018-11-11T10:39:22.358Z,6284
2018-11-11T10:40:21.793Z,6556
2018-11-11T10:41:21.767Z,6604
2018-11-11T10:42:21.792Z,6640
2018-11-11T10:43:21.781Z,6504
2018-11-11T10:44:21.342Z,6032
2018-11-11T10:45:21.737Z,4956
2018-11-11T10:46:21.718Z,3916
2018-11-11T10:47:21.497Z,3408
2018-11-11T10:48:21.720Z,3180
2018-11-11T10:49:21.484Z,3236
2018-11-11T10:50:21.444Z,3248
2018-11-11T10:51:21.717Z,3248
2018-11-11T10:52:21.670Z,3132
2018-11-11T10:53:21.711Z,3040
2018-11-11T10:54:21.655Z,3016
2018-11-11T10:55:21.432Z,3036
2018-11-11T10:56:21.677Z,3172
2018-11-11T10:57:21.404Z,3240
2018-11-11T10:58:21.125Z,3024
2018-11-11T10:59:21.624Z,2664
2018-11-11T11:00:22.094Z,2696
2018-11-11T11:01:21.638Z,2784
2018-11-11T11:02:21.592Z,2932
2018-11-11T11:03:21.643Z,2976
2018-11-11T11:04:21.600Z,2920
2018-11-11T11:05:21.102Z,2756
2018-11-11T11:06:21.967Z,2764
2018-11-11T11:07:21.600Z,2972
2018-11-11T11:08:21.294Z,3268
2018-11-11T11:09:21.575Z,3208
2018-11-11T11:10:21.535Z,2932
2018-11-11T11:11:21.575Z,2820
2018-11-11T11:12:21.291Z,2828
2018-11-11T11:13:21.826Z,3120
2018-11-11T11:14:21.500Z,3684
2018-11-11T11:15:21.498Z,4180
2018-11-11T11:16:21.512Z,4408
2018-11-11T11:17:21.764Z,4352
2018-11-11T11:18:21.514Z,4044
2018-11-11T11:19:21.233Z,3616
2018-11-11T11:20:21.226Z,3212
2018-11-11T11:21:20.942Z,3108
2018-11-11T11:22:21.493Z,3392
2018-11-11T11:23:20.940Z,4080
2018-11-11T11:24:21.213Z,5508
2018-11-11T11:25:21.435Z,7196
2018-11-11T11:26:21.189Z,8304
2018-11-11T11:27:21.955Z,8628
2018-11-11T11:28:21.154Z,8660
2018-11-11T11:29:21.410Z,8676
2018-11-11T11:30:21.122Z,8544
2018-11-11T11:31:21.624Z,8288
2018-11-11T11:32:21.875Z,8336
2018-11-11T11:33:21.388Z,8404
2018-11-11T11:34:21.438Z,8644
2018-11-11T11:35:20.927Z,8340
2018-11-11T11:36:21.348Z,7472
2018-11-11T11:37:21.323Z,7036
2018-11-11T11:38:21.674Z,6996
2018-11-11T11:39:21.315Z,7108
2018-11-11T11:40:21.342Z,7280
2018-11-11T11:41:21.735Z,6808
2018-11-11T11:42:21.322Z,6064
2018-11-11T11:43:21.273Z,5456
2018-11-11T11:44:21.251Z,5036
2018-11-11T11:45:21.267Z,4960
2018-11-11T11:46:21.038Z,4532
2018-11-11T11:47:21.207Z,3984
2018-11-11T11:48:21.250Z,3836
2018-11-11T11:49:21.251Z,3796
2018-11-11T11:50:21.408Z,3792
2018-11-11T11:51:21.253Z,3584
2018-11-11T11:52:21.307Z,2920
2018-11-11T11:53:20.966Z,2372
2018-11-11T11:54:20.984Z,2072
2018-11-11T11:55:21.192Z,1704
2018-11-11T11:56:20.962Z,1460
2018-11-11T11:57:20.932Z,1344
2018-11-11T11:58:21.555Z,1224
2018-11-11T11:59:20.912Z,1172
2018-11-11T12:00:20.406Z,1180
2018-11-11T12:01:21.155Z,1188
2018-11-11T12:02:21.311Z,1224
2018-11-11T12:03:20.912Z,1276
2018-11-11T12:04:21.138Z,1276
2018-11-11T12:05:21.126Z,1276
2018-11-11T12:06:20.857Z,1332
2018-11-11T12:07:21.141Z,1536
2018-11-11T12:08:21.184Z,1792
2018-11-11T12:09:21.155Z,1860
2018-11-11T12:10:20.823Z,1972
2018-11-11T12:11:20.849Z,2024
2018-11-11T12:12:21.070Z,1912
2018-11-11T12:13:21.082Z,2060
2018-11-11T12:14:21.050Z,2440
2018-11-11T12:15:20.312Z,2588
2018-11-11T12:16:21.120Z,2572
2018-11-11T12:17:21.434Z,2544
2018-11-11T12:18:21.033Z,2444
2018-11-11T12:19:21.045Z,2292
2018-11-11T12:20:20.509Z,2064
2018-11-11T12:21:21.001Z,2024
2018-11-11T12:22:20.731Z,1936
2018-11-11T12:23:21.100Z,1780
2018-11-11T12:24:20.991Z,1688
2018-11-11T12:25:21.010Z,1724
2018-11-11T12:26:20.447Z,2096
2018-11-11T12:27:21.006Z,2676
2018-11-11T12:28:20.686Z,2976
2018-11-11T12:29:20.459Z,3132
2018-11-11T12:30:20.775Z,3360
2018-11-11T12:31:20.695Z,3920
2018-11-11T12:32:20.945Z,4428
2018-11-11T12:33:20.658Z,5012
2018-11-11T12:34:20.932Z,5720
2018-11-11T12:35:20.669Z,6296
2018-11-11T12:36:20.897Z,6904
2018-11-11T12:37:20.883Z,7624
2018-11-11T12:38:20.867Z,8204
2018-11-11T12:39:21.508Z,8560
2018-11-11T12:40:22.329Z,8852
2018-11-11T12:41:20.881Z,9116
2018-11-11T12:42:20.834Z,9068
2018-11-11T12:43:21.040Z,8916
2018-11-11T12:44:20.829Z,8844
2018-11-11T12:45:20.870Z,8800
2018-11-11T12:46:20.858Z,8756
2018-11-11T12:47:20.546Z,8452
2018-11-11T12:48:20.799Z,7952
2018-11-11T12:49:20.699Z,7240
2018-11-11T12:50:20.787Z,6496
2018-11-11T12:51:20.799Z,5928
2018-11-11T12:52:20.780Z,5636
2018-11-11T12:53:20.759Z,5584
2018-11-11T12:54:20.748Z,5704
2018-11-11T12:55:20.797Z,5924
2018-11-11T12:56:20.745Z,6052
2018-11-11T12:57:20.759Z,6236
2018-11-11T12:58:20.712Z,6568
2018-11-11T12:59:20.483Z,6980
2018-11-11T13:00:20.693Z,7244
2018-11-11T13:01:20.472Z,7452
2018-11-11T13:02:20.676Z,7708
2018-11-11T13:03:20.714Z,7828
2018-11-11T13:04:20.435Z,7788
2018-11-11T13:05:20.692Z,7620
2018-11-11T13:06:20.647Z,7388
2018-11-11T13:07:20.652Z,7248
2018-11-11T13:08:20.407Z,7216
2018-11-11T13:09:20.406Z,7408
2018-11-11T13:10:20.366Z,7736
2018-11-11T13:11:20.196Z,8100
2018-11-11T13:12:21.339Z,8592
2018-11-11T13:13:20.383Z,9196
2018-11-11T13:14:20.589Z,9748
2018-11-11T13:15:20.367Z,9872
2018-11-11T13:16:20.577Z,9656
2018-11-11T13:17:20.350Z,8920
2018-11-11T13:18:20.564Z,8008
2018-11-11T13:19:20.596Z,7164
2018-11-11T13:20:20.572Z,6568
2018-11-11T13:21:20.319Z,6372
2018-11-11T13:22:21.635Z,6428
2018-11-11T13:23:20.282Z,6324
2018-11-11T13:24:20.544Z,6056
2018-11-11T13:25:20.546Z,5640
2018-11-11T13:26:20.549Z,5220
2018-11-11T13:27:20.250Z,4808
2018-11-11T13:28:20.525Z,4492
2018-11-11T13:29:20.235Z,4224
2018-11-11T13:30:20.012Z,4028
2018-11-11T13:31:20.228Z,3868
2018-11-11T13:32:20.249Z,3732
2018-11-11T13:33:20.217Z,3588
2018-11-11T13:34:20.497Z,3464
2018-11-11T13:35:20.196Z,3376
2018-11-11T13:36:19.958Z,3292
2018-11-11T13:37:20.200Z,3220
2018-11-11T13:38:20.673Z,3160
2018-11-11T13:39:20.177Z,3108
2018-11-11T13:40:20.436Z,3060
2018-11-11T13:41:20.177Z,3020
2018-11-11T13:42:20.440Z,2988
2018-11-11T13:43:20.269Z,2956
2018-11-11T13:44:19.897Z,2928
2018-11-11T13:45:20.387Z,2900
2018-11-11T13:46:20.674Z,2888
2018-11-11T13:47:20.115Z,2872
2018-11-11T13:48:20.396Z,2852
2018-11-11T13:49:20.105Z,2840
2018-11-11T13:50:20.362Z,2816
2018-11-11T13:51:20.076Z,2792
2018-11-11T13:52:20.431Z,2776
2018-11-11T13:53:20.086Z,2756
2018-11-11T13:54:19.840Z,2736
2018-11-11T13:55:19.895Z,2724
2018-11-11T13:56:20.063Z,2712